Time;durP1;ratioP1;P1;durP2;ratioP2;P2;SDS_P1;SDS_P2;PMS_P1;PMS_P2;Temp;Humidity;BMP_temperature;BMP_pressure;BME280_temperature;BME280_humidity;BME280_pressure;Samples;Min_cycle;Max_cycle;Signal;HPM_P1;HPM_P2
2024/03/27 00:00:13;;;;;;;17.70;13.23;;;7.90;99.90;;;;;;4986381;28;20042;-69
2024/03/27 00:02:40;;;;;;;17.33;13.07;;;7.90;99.90;;;;;;4974548;28;20038;-80
2024/03/27 00:05:06;;;;;;;17.48;12.38;;;7.80;99.90;;;;;;4982519;28;20037;-80
2024/03/27 00:07:32;;;;;;;17.17;12.98;;;7.80;99.90;;;;;;4978131;28;20095;-77
2024/03/27 00:09:59;;;;;;;17.25;12.93;;;7.80;99.90;;;;;;4979132;28;20046;-80
2024/03/27 00:12:25;;;;;;;17.52;14.02;;;7.90;99.90;;;;;;4974374;28;20711;-80
2024/03/27 00:14:51;;;;;;;19.73;13.00;;;7.90;99.90;;;;;;4992749;28;20038;-75
2024/03/27 00:17:18;;;;;;;20.23;13.35;;;7.90;99.90;;;;;;4968450;28;20481;-81
2024/03/27 00:20:04;;;;;;;17.65;13.35;;;7.90;99.90;;;;;;5000901;28;20053;-79
2024/03/27 00:22:30;;;;;;;18.95;13.23;;;7.80;99.90;;;;;;4973762;28;20038;-79
2024/03/27 00:24:56;;;;;;;19.70;13.63;;;7.80;99.90;;;;;;4973428;28;20488;-71
2024/03/27 00:27:22;;;;;;;16.52;13.45;;;7.80;99.90;;;;;;4972582;28;20034;-74
2024/03/27 00:29:50;;;;;;;17.65;13.52;;;7.80;99.90;;;;;;4961651;28;20042;-78
2024/03/27 00:32:17;;;;;;;16.73;12.75;;;7.90;99.90;;;;;;4979847;28;20038;-74
2024/03/27 00:34:43;;;;;;;17.10;12.70;;;8.00;99.90;;;;;;4970486;28;20030;-77
2024/03/27 00:37:10;;;;;;;19.73;12.38;;;7.90;99.90;;;;;;4962734;28;20053;-79
2024/03/27 00:39:36;;;;;;;17.08;13.18;;;8.00;99.90;;;;;;4976003;28;20363;-77
2024/03/27 00:42:04;;;;;;;17.75;12.43;;;8.00;99.90;;;;;;4961184;28;20095;-77
2024/03/27 00:44:30;;;;;;;18.27;12.90;;;7.90;99.90;;;;;;4982731;28;20038;-78
2024/03/27 00:46:56;;;;;;;18.48;13.27;;;7.80;99.90;;;;;;4978917;28;20143;-79
2024/03/27 00:49:23;;;;;;;17.17;13.85;;;8.00;99.90;;;;;;4975991;28;20046;-71
2024/03/27 00:51:49;;;;;;;20.13;14.02;;;7.90;99.90;;;;;;4980257;28;20038;-75
2024/03/27 00:54:15;;;;;;;17.17;12.18;;;8.00;99.90;;;;;;4976695;28;20030;-78
2024/03/27 00:56:42;;;;;;;19.55;13.45;;;8.20;99.90;;;;;;4972257;28;20103;-77
2024/03/27 00:59:08;;;;;;;20.65;14.48;;;8.30;99.90;;;;;;4968011;28;20034;-78
2024/03/27 01:01:34;;;;;;;19.05;13.52;;;7.90;99.90;;;;;;4981478;28;20419;-77
2024/03/27 01:04:01;;;;;;;20.67;13.63;;;7.70;99.90;;;;;;4975127;28;20439;-76
2024/03/27 01:06:27;;;;;;;21.17;14.32;;;7.80;99.90;;;;;;4982813;28;20427;-73
2024/03/27 01:08:53;;;;;;;19.35;13.85;;;8.00;99.90;;;;;;4972599;28;20031;-73
2024/03/27 01:11:19;;;;;;;18.67;13.70;;;8.10;99.90;;;;;;4962536;28;20039;-77
2024/03/27 01:13:46;;;;;;;19.65;13.65;;;8.30;99.90;;;;;;4972566;28;20034;-73
2024/03/27 01:16:12;;;;;;;17.50;13.32;;;8.30;99.90;;;;;;4972239;28;20373;-79
2024/03/27 01:18:40;;;;;;;18.20;13.55;;;8.30;99.90;;;;;;4973005;28;20385;-78
2024/03/27 01:21:06;;;;;;;17.23;14.20;;;8.40;99.90;;;;;;4989255;28;20037;-80
2024/03/27 01:23:32;;;;;;;17.88;13.32;;;8.50;99.90;;;;;;5039725;28;20069;-75
2024/03/27 01:26:03;;;;;;;21.77;14.38;;;8.40;99.90;;;;;;4971419;28;20046;-79
2024/03/27 01:28:29;;;;;;;17.77;14.38;;;8.10;99.90;;;;;;4972221;28;20366;-77
2024/03/27 01:30:55;;;;;;;18.30;13.07;;;8.20;99.90;;;;;;4983882;28;20035;-78
2024/03/27 01:33:22;;;;;;;18.88;14.30;;;8.10;99.90;;;;;;4984426;28;20110;-77
2024/03/27 01:35:50;;;;;;;22.05;15.15;;;8.20;99.90;;;;;;4961544;28;20069;-74
2024/03/27 01:38:16;;;;;;;17.92;13.80;;;8.20;99.90;;;;;;4971931;28;20034;-73
2024/03/27 01:40:42;;;;;;;19.83;13.43;;;8.30;99.90;;;;;;4972126;28;20022;-76
2024/03/27 01:43:08;;;;;;;19.42;14.40;;;8.40;99.90;;;;;;4956772;28;20099;-78
2024/03/27 01:45:35;;;;;;;20.52;14.73;;;8.10;99.90;;;;;;4972081;28;20039;-79
2024/03/27 01:48:02;;;;;;;19.55;14.77;;;8.20;99.90;;;;;;4990671;28;20032;-75
2024/03/27 01:50:29;;;;;;;16.67;13.77;;;8.10;99.90;;;;;;5027431;28;20038;-77
2024/03/27 01:52:59;;;;;;;21.25;13.90;;;8.00;99.90;;;;;;4973177;28;20554;-69
2024/03/27 01:55:26;;;;;;;20.13;14.90;;;8.10;99.90;;;;;;4978184;28;20881;-75
2024/03/27 01:57:53;;;;;;;17.80;14.27;;;8.20;99.90;;;;;;4957921;28;20038;-77
2024/03/27 02:00:20;;;;;;;19.23;14.95;;;8.10;99.90;;;;;;5010527;28;20389;-70
2024/03/27 02:02:47;;;;;;;22.05;14.27;;;8.20;99.90;;;;;;5038761;28;20034;-79
2024/03/27 02:05:14;;;;;;;20.23;14.75;;;8.30;99.90;;;;;;4967562;28;20046;-76
2024/03/27 02:07:41;;;;;;;18.98;14.20;;;8.30;99.90;;;;;;4956211;28;20038;-71
2024/03/27 02:10:08;;;;;;;20.15;14.70;;;8.30;99.90;;;;;;4984279;28;20038;-78
2024/03/27 02:12:35;;;;;;;19.48;13.80;;;8.10;99.90;;;;;;4959463;28;20039;-77
2024/03/27 02:15:06;;;;;;;19.10;14.10;;;7.90;99.90;;;;;;4977490;28;20096;-70
2024/03/27 02:17:51;;;;;;;20.30;14.15;;;7.70;99.90;;;;;;4988337;28;20022;-70
2024/03/27 02:20:18;;;;;;;18.80;13.90;;;7.90;99.90;;;;;;4971256;28;20079;-76
2024/03/27 02:22:45;;;;;;;20.63;14.45;;;8.10;99.90;;;;;;4976725;28;20037;-72
2024/03/27 02:25:26;;;;;;;20.98;15.02;;;8.30;99.90;;;;;;4980146;28;20049;-79
2024/03/27 02:27:53;;;;;;;20.92;14.25;;;8.30;99.90;;;;;;4973211;28;20076;-71
2024/03/27 02:30:20;;;;;;;20.27;14.73;;;8.40;99.90;;;;;;4971271;28;20495;-78
2024/03/27 02:32:46;;;;;;;20.45;14.50;;;8.20;99.90;;;;;;4965561;28;20396;-77
2024/03/27 02:35:12;;;;;;;20.70;14.13;;;8.20;99.90;;;;;;4962619;28;20110;-79
2024/03/27 02:37:39;;;;;;;18.95;14.00;;;8.20;99.90;;;;;;4968155;28;20034;-78
2024/03/27 02:40:06;;;;;;;16.98;13.65;;;8.00;99.90;;;;;;4974143;28;20046;-71
2024/03/27 02:42:51;;;;;;;17.75;13.52;;;8.00;99.90;;;;;;4989269;28;20065;-75
2024/03/27 02:45:17;;;;;;;18.67;14.38;;;8.00;99.90;;;;;;4970532;28;20046;-71
2024/03/27 02:47:43;;;;;;;17.33;13.88;;;7.80;99.90;;;;;;4972415;28;20462;-75
2024/03/27 02:50:09;;;;;;;19.35;14.10;;;8.00;99.90;;;;;;4973003;28;20042;-73
2024/03/27 02:52:36;;;;;;;17.48;13.32;;;7.90;99.90;;;;;;4953994;28;20050;-74
2024/03/27 02:55:20;;;;;;;20.15;14.73;;;7.80;99.90;;;;;;4983993;28;20388;-74
2024/03/27 02:57:47;;;;;;;19.10;14.93;;;7.70;99.90;;;;;;4989113;28;20038;-77
2024/03/27 03:00:15;;;;;;;18.88;13.90;;;7.70;99.90;;;;;;4973614;28;20421;-73
2024/03/27 03:02:41;;;;;;;17.90;13.98;;;7.70;99.90;;;;;;4969800;28;20386;-77
2024/03/27 03:05:08;;;;;;;18.98;14.02;;;7.60;99.90;;;;;;4970924;28;20034;-69
2024/03/27 03:07:34;;;;;;;20.33;14.60;;;7.60;99.90;;;;;;4970699;28;20027;-75
2024/03/27 03:10:01;;;;;;;20.38;15.13;;;7.80;99.90;;;;;;4970886;28;20152;-71
2024/03/27 03:12:27;;;;;;;21.63;14.10;;;7.90;99.90;;;;;;4970708;28;20041;-74
2024/03/27 03:14:54;;;;;;;18.67;13.80;;;8.00;99.90;;;;;;4974680;28;20377;-73
2024/03/27 03:17:20;;;;;;;19.35;13.77;;;8.10;99.90;;;;;;4986245;28;20034;-74
2024/03/27 03:19:47;;;;;;;19.35;14.50;;;8.20;99.90;;;;;;4972915;28;20042;-76
2024/03/27 03:22:16;;;;;;;17.23;13.18;;;8.20;99.90;;;;;;4973055;28;20037;-70
2024/03/27 03:24:43;;;;;;;21.60;14.02;;;8.30;99.90;;;;;;4981129;28;20370;-73
2024/03/27 03:27:10;;;;;;;18.55;13.63;;;8.40;99.90;;;;;;4964603;28;20412;-73
2024/03/27 03:29:55;;;;;;;20.17;14.75;;;8.40;99.90;;;;;;4990391;28;20037;-78
2024/03/27 03:32:21;;;;;;;17.55;13.35;;;8.10;99.90;;;;;;4988023;28;20423;-75
2024/03/27 03:34:47;;;;;;;18.77;13.93;;;8.00;99.90;;;;;;4979554;28;20045;-79
2024/03/27 03:37:14;;;;;;;18.63;12.82;;;8.10;99.90;;;;;;4957656;28;20043;-69
2024/03/27 03:39:40;;;;;;;19.40;12.73;;;8.20;99.90;;;;;;4973453;28;20038;-72
2024/03/27 03:42:07;;;;;;;16.73;12.75;;;8.10;99.90;;;;;;4973698;28;20424;-71
2024/03/27 03:44:33;;;;;;;18.20;12.43;;;8.10;99.90;;;;;;4970331;28;20030;-75
2024/03/27 03:46:59;;;;;;;16.65;13.52;;;7.80;99.90;;;;;;4973517;28;20485;-73
2024/03/27 03:49:26;;;;;;;16.55;12.73;;;7.70;99.90;;;;;;4973271;28;20038;-71
2024/03/27 03:51:52;;;;;;;16.20;12.75;;;7.70;99.90;;;;;;4973595;28;20050;-74
2024/03/27 03:54:19;;;;;;;16.58;11.70;;;7.60;99.90;;;;;;4986192;28;20045;-81
2024/03/27 03:56:45;;;;;;;16.48;11.93;;;7.60;99.90;;;;;;4974004;28;20524;-80
2024/03/27 03:59:11;;;;;;;18.92;13.85;;;7.60;99.90;;;;;;4972983;28;20034;-75
2024/03/27 04:01:38;;;;;;;16.70;12.95;;;7.70;99.90;;;;;;4972668;28;20034;-74
2024/03/27 04:04:05;;;;;;;16.25;12.75;;;7.90;99.90;;;;;;4986671;28;20084;-73
2024/03/27 04:06:32;;;;;;;16.90;12.85;;;8.10;99.90;;;;;;4983801;28;20042;-73
2024/03/27 04:08:58;;;;;;;20.15;14.23;;;8.10;99.90;;;;;;4976754;28;20083;-71
2024/03/27 04:11:24;;;;;;;18.75;12.93;;;8.20;99.90;;;;;;4981723;28;20481;-73
2024/03/27 04:13:51;;;;;;;15.48;12.38;;;8.20;99.90;;;;;;4973284;28;20620;-76
2024/03/27 04:16:18;;;;;;;18.27;13.43;;;8.30;99.90;;;;;;4973371;28;20064;-73
2024/03/27 04:18:44;;;;;;;18.27;13.05;;;8.20;99.90;;;;;;4964640;28;20084;-77
2024/03/27 04:21:11;;;;;;;14.57;11.43;;;8.20;99.90;;;;;;4994206;28;20078;-72
2024/03/27 04:23:37;;;;;;;15.82;12.73;;;8.20;99.90;;;;;;4982357;28;20065;-73
2024/03/27 04:26:04;;;;;;;16.23;12.25;;;8.20;99.90;;;;;;4978671;28;20061;-74
2024/03/27 04:28:30;;;;;;;18.15;12.45;;;8.00;99.90;;;;;;4976004;28;20034;-74
2024/03/27 04:30:57;;;;;;;17.40;12.40;;;8.00;99.90;;;;;;4973071;28;20423;-73
2024/03/27 04:33:24;;;;;;;15.07;11.98;;;8.00;99.90;;;;;;4975095;28;20553;-78
2024/03/27 04:35:50;;;;;;;16.30;12.50;;;7.70;99.90;;;;;;4975978;28;20035;-73
2024/03/27 04:38:17;;;;;;;16.63;12.30;;;7.70;99.90;;;;;;4985177;28;20042;-75
2024/03/27 04:40:45;;;;;;;15.52;12.05;;;7.80;99.90;;;;;;4970189;28;20393;-79
2024/03/27 04:43:11;;;;;;;15.52;12.07;;;7.80;99.90;;;;;;4974565;28;20035;-75
2024/03/27 04:45:56;;;;;;;16.83;12.73;;;7.80;99.90;;;;;;4997037;28;20030;-78
2024/03/27 04:48:41;;;;;;;17.42;13.50;;;7.70;99.90;;;;;;4991204;28;20023;-76
2024/03/27 04:51:09;;;;;;;16.02;12.10;;;7.60;99.90;;;;;;4977229;28;20052;-70
2024/03/27 04:53:35;;;;;;;15.10;12.45;;;7.90;99.90;;;;;;4985394;28;20066;-76
2024/03/27 04:56:02;;;;;;;17.25;12.90;;;7.90;99.90;;;;;;4987339;28;20034;-75
2024/03/27 04:58:28;;;;;;;16.30;11.65;;;8.00;99.90;;;;;;4973543;28;20084;-78
2024/03/27 05:00:54;;;;;;;16.65;11.93;;;8.20;99.90;;;;;;4969674;28;20092;-75
2024/03/27 05:03:21;;;;;;;16.52;12.02;;;8.20;99.90;;;;;;4983364;28;20048;-74
2024/03/27 05:05:47;;;;;;;14.90;11.70;;;8.30;99.90;;;;;;4982891;28;20046;-74
2024/03/27 05:08:14;;;;;;;17.77;10.80;;;8.40;99.90;;;;;;4991479;28;20061;-76
2024/03/27 05:10:40;;;;;;;13.52;10.43;;;8.50;99.90;;;;;;4975468;28;20038;-76
2024/03/27 05:13:07;;;;;;;12.73;9.88;;;8.60;99.90;;;;;;4980788;28;20041;-69
2024/03/27 05:15:33;;;;;;;14.20;10.32;;;8.50;99.90;;;;;;4952474;28;20068;-77
2024/03/27 05:18:01;;;;;;;10.95;9.32;;;8.50;99.90;;;;;;4985043;28;20030;-73
2024/03/27 05:20:46;;;;;;;11.82;9.55;;;8.30;99.90;;;;;;4990473;28;20388;-77
2024/03/27 05:23:13;;;;;;;11.93;9.55;;;8.30;99.90;;;;;;4974687;28;20420;-71
2024/03/27 05:25:39;;;;;;;12.63;9.73;;;8.30;99.90;;;;;;4979286;28;20034;-75
2024/03/27 05:28:06;;;;;;;14.20;10.35;;;8.20;99.90;;;;;;5049277;28;20087;-79
2024/03/27 05:30:51;;;;;;;12.10;9.32;;;8.30;99.90;;;;;;4978324;28;20067;-81
2024/03/27 05:33:22;;;;;;;12.95;9.68;;;8.20;99.90;;;;;;4960940;28;20038;-70
2024/03/27 05:35:50;;;;;;;11.77;9.35;;;8.30;99.90;;;;;;4979520;28;20053;-75
2024/03/27 05:38:16;;;;;;;13.80;9.35;;;8.30;99.90;;;;;;4986198;28;20555;-71
2024/03/27 05:41:01;;;;;;;11.35;9.45;;;8.30;99.90;;;;;;4970724;28;20041;-69
2024/03/27 05:43:28;;;;;;;13.88;10.10;;;8.30;99.90;;;;;;4986288;28;20026;-78
2024/03/27 05:45:54;;;;;;;12.90;9.82;;;8.50;99.90;;;;;;4972408;28;20038;-79
2024/03/27 05:48:21;;;;;;;15.25;8.80;;;8.60;99.90;;;;;;5054622;28;20045;-78
2024/03/27 05:50:47;;;;;;;10.48;8.32;;;8.70;99.90;;;;;;4985317;28;20087;-75
2024/03/27 05:53:13;;;;;;;11.13;8.73;;;8.80;99.90;;;;;;4963553;28;20050;-84
2024/03/27 05:55:40;;;;;;;11.48;9.40;;;8.90;99.90;;;;;;4973701;28;20050;-73
2024/03/27 05:58:06;;;;;;;14.25;9.13;;;9.00;99.90;;;;;;4973065;28;20045;-73
2024/03/27 06:00:33;;;;;;;11.57;9.63;;;8.90;99.90;;;;;;4973816;28;20085;-76
2024/03/27 06:02:59;;;;;;;10.63;9.20;;;9.00;99.90;;;;;;4976899;28;20687;-72
2024/03/27 06:05:26;;;;;;;12.07;9.82;;;9.00;99.90;;;;;;4987262;28;20091;-79
2024/03/27 06:07:52;;;;;;;12.52;9.60;;;9.20;99.90;;;;;;4959778;28;20104;-79
2024/03/27 06:10:18;;;;;;;11.52;9.52;;;9.40;99.90;;;;;;4984308;28;20557;-74
2024/03/27 06:12:45;;;;;;;14.45;9.98;;;9.40;99.90;;;;;;4965409;28;20038;-72
2024/03/27 06:15:11;;;;;;;14.32;10.50;;;9.40;99.90;;;;;;4975900;28;20042;-77
2024/03/27 06:17:38;;;;;;;15.98;11.43;;;9.40;99.90;;;;;;4978943;28;20034;-75
2024/03/27 06:20:04;;;;;;;19.45;13.05;;;10.10;99.90;;;;;;4990599;28;20385;-71
2024/03/27 06:22:31;;;;;;;24.58;16.33;;;10.10;99.90;;;;;;4983905;28;20034;-70
2024/03/27 06:24:57;;;;;;;13.35;10.40;;;9.90;99.90;;;;;;4974771;28;20043;-69
2024/03/27 06:27:24;;;;;;;42.78;27.17;;;10.00;99.90;;;;;;5022416;28;20489;-73
2024/03/27 06:29:50;;;;;;;21.90;13.88;;;9.70;99.90;;;;;;4982348;28;20046;-73
2024/03/27 06:32:17;;;;;;;11.30;9.80;;;9.70;99.90;;;;;;4976646;28;20034;-72
2024/03/27 06:34:43;;;;;;;11.60;8.90;;;9.40;99.90;;;;;;4982295;28;20599;-75
2024/03/27 06:37:09;;;;;;;11.07;9.02;;;9.70;99.90;;;;;;4962360;28;20067;-75
2024/03/27 06:39:36;;;;;;;10.73;8.50;;;10.20;99.90;;;;;;4970547;28;20423;-78
2024/03/27 06:42:03;;;;;;;12.52;9.07;;;10.50;99.90;;;;;;4976926;28;20034;-74
2024/03/27 06:44:30;;;;;;;10.52;8.50;;;10.60;99.90;;;;;;4972495;28;20034;-76
2024/03/27 06:46:56;;;;;;;10.70;8.13;;;10.80;99.90;;;;;;4966912;28;20431;-76
2024/03/27 06:49:32;;;;;;;10.32;8.05;;;10.80;99.90;;;;;;4986248;28;20034;-74
2024/03/27 06:52:01;;;;;;;12.48;8.98;;;10.80;99.90;;;;;;4974898;28;20058;-73
2024/03/27 06:54:27;;;;;;;13.63;9.32;;;10.40;99.90;;;;;;4959947;28;20038;-72
2024/03/27 06:56:54;;;;;;;11.52;8.82;;;10.60;99.90;;;;;;4966274;28;20092;-77
2024/03/27 06:59:20;;;;;;;12.73;9.30;;;10.80;99.90;;;;;;4971513;28;20031;-75
2024/03/27 07:01:46;;;;;;;44.60;26.65;;;11.10;99.90;;;;;;4973555;28;20050;-76
2024/03/27 07:04:13;;;;;;;111.13;64.78;;;11.20;99.90;;;;;;4971808;28;20035;-73
2024/03/27 07:06:39;;;;;;;26.58;18.88;;;11.60;99.90;;;;;;4971104;28;20034;-75
2024/03/27 07:09:05;;;;;;;16.05;11.27;;;11.80;99.90;;;;;;4963586;28;20039;-73
2024/03/27 07:11:32;;;;;;;10.77;9.05;;;11.80;99.90;;;;;;4982673;28;20046;-76
2024/03/27 07:13:59;;;;;;;13.35;8.68;;;11.80;99.90;;;;;;4957988;28;20424;-79
2024/03/27 07:16:26;;;;;;;11.27;9.15;;;11.90;99.90;;;;;;4970923;28;20053;-70
2024/03/27 07:18:53;;;;;;;10.02;7.53;;;11.90;99.90;;;;;;4973781;28;20039;-75
2024/03/27 07:21:20;;;;;;;11.35;8.00;;;12.00;99.90;;;;;;4969200;28;20047;-75
2024/03/27 07:23:47;;;;;;;10.55;7.90;;;11.70;99.90;;;;;;4964651;28;20050;-73
2024/03/27 07:26:13;;;;;;;10.38;7.80;;;11.70;99.90;;;;;;4956899;28;20031;-77
2024/03/27 07:28:40;;;;;;;10.30;7.40;;;11.70;99.90;;;;;;4970948;28;20039;-73
2024/03/27 07:31:06;;;;;;;14.48;8.02;;;11.70;99.90;;;;;;4955289;28;20437;-74
2024/03/27 07:33:33;;;;;;;11.20;7.85;;;11.70;99.90;;;;;;4970781;28;20049;-74
2024/03/27 07:35:59;;;;;;;10.10;7.93;;;11.70;99.90;;;;;;4979252;28;20034;-77
2024/03/27 07:38:26;;;;;;;10.77;8.13;;;11.60;99.90;;;;;;4970734;28;20039;-74
2024/03/27 07:40:52;;;;;;;11.73;9.13;;;11.50;99.90;;;;;;4969521;28;20455;-75
2024/03/27 07:43:18;;;;;;;11.32;8.55;;;11.60;99.90;;;;;;4973522;28;20035;-75
2024/03/27 07:45:45;;;;;;;11.52;9.13;;;11.50;99.90;;;;;;4953651;28;20034;-75
2024/03/27 07:48:11;;;;;;;13.00;10.07;;;11.30;99.90;;;;;;4974391;28;20029;-75
2024/03/27 07:50:37;;;;;;;12.88;9.98;;;11.10;99.90;;;;;;4989523;28;20039;-74
2024/03/27 07:53:04;;;;;;;11.70;9.25;;;11.20;99.90;;;;;;4984210;28;20535;-75
2024/03/27 07:55:30;;;;;;;11.60;9.00;;;11.10;99.90;;;;;;4947353;28;20050;-77
2024/03/27 07:57:56;;;;;;;11.88;9.07;;;11.00;99.90;;;;;;4975692;28;20057;-75
2024/03/27 08:00:23;;;;;;;14.18;10.10;;;11.20;99.90;;;;;;4961863;28;20426;-76
2024/03/27 08:02:49;;;;;;;13.95;10.27;;;11.50;99.90;;;;;;4987621;28;20038;-74
2024/03/27 08:05:16;;;;;;;10.68;9.27;;;11.50;99.90;;;;;;4944894;28;20066;-71
2024/03/27 08:07:43;;;;;;;10.88;9.20;;;11.20;99.90;;;;;;4982221;28;20042;-73
2024/03/27 08:10:09;;;;;;;11.90;9.38;;;11.10;99.90;;;;;;4966416;28;20034;-72
2024/03/27 08:12:36;;;;;;;11.85;9.32;;;11.30;99.90;;;;;;4989378;28;20477;-74
2024/03/27 08:15:03;;;;;;;14.75;10.23;;;11.50;99.90;;;;;;4976463;28;20351;-71
2024/03/27 08:17:29;;;;;;;12.68;9.77;;;11.40;99.90;;;;;;4970189;28;20424;-74
2024/03/27 08:19:56;;;;;;;12.65;9.18;;;11.40;99.90;;;;;;4966492;28;20065;-73
2024/03/27 08:22:22;;;;;;;11.40;9.63;;;11.70;99.90;;;;;;4990212;28;20038;-75
2024/03/27 08:24:51;;;;;;;11.88;8.75;;;11.50;99.90;;;;;;4968032;28;20035;-73
2024/03/27 08:27:17;;;;;;;12.77;9.00;;;11.30;99.90;;;;;;4966868;28;20050;-74
2024/03/27 08:29:43;;;;;;;12.82;9.38;;;11.80;99.90;;;;;;4969644;28;20405;-75
2024/03/27 08:32:09;;;;;;;11.05;8.75;;;12.20;99.90;;;;;;4969514;28;20402;-76
2024/03/27 08:34:36;;;;;;;12.65;8.80;;;11.70;99.90;;;;;;4954067;28;20046;-73
2024/03/27 08:37:02;;;;;;;10.82;8.70;;;11.50;99.90;;;;;;4969629;28;20046;-72
2024/03/27 08:39:29;;;;;;;15.15;9.15;;;11.70;99.90;;;;;;4982474;28;20064;-75
2024/03/27 08:41:56;;;;;;;13.73;9.38;;;12.10;99.90;;;;;;4969627;28;20262;-71
2024/03/27 08:44:23;;;;;;;15.38;9.27;;;12.10;99.90;;;;;;4969470;28;20039;-74
2024/03/27 08:46:49;;;;;;;11.77;8.75;;;11.70;99.90;;;;;;4960433;28;20477;-75
2024/03/27 08:49:15;;;;;;;11.57;8.85;;;11.90;99.90;;;;;;4975303;28;20027;-70
2024/03/27 08:51:42;;;;;;;10.68;8.65;;;12.10;99.90;;;;;;4962213;28;20035;-69
2024/03/27 08:54:12;;;;;;;12.73;8.85;;;12.10;99.90;;;;;;4962223;28;20443;-76
2024/03/27 08:56:39;;;;;;;13.85;9.88;;;11.70;99.90;;;;;;4973116;28;20050;-73
2024/03/27 08:59:06;;;;;;;13.57;8.93;;;11.30;99.90;;;;;;4972911;28;20038;-75
2024/03/27 09:01:32;;;;;;;12.10;8.60;;;11.60;99.90;;;;;;4962278;28;20493;-73
2024/03/27 09:03:59;;;;;;;11.63;8.73;;;12.10;99.90;;;;;;4972485;28;20042;-73
2024/03/27 09:06:25;;;;;;;15.50;9.32;;;12.00;99.90;;;;;;4962158;28;20041;-75
2024/03/27 09:08:51;;;;;;;10.93;8.40;;;11.70;99.90;;;;;;4972585;28;20097;-74
2024/03/27 09:11:21;;;;;;;11.90;8.68;;;11.50;99.90;;;;;;4981750;28;20494;-74
2024/03/27 09:13:47;;;;;;;13.65;9.68;;;11.70;99.90;;;;;;4958799;28;20554;-72
2024/03/27 09:16:13;;;;;;;12.68;9.68;;;11.30;99.90;;;;;;4982579;28;20043;-74
2024/03/27 09:18:42;;;;;;;17.25;10.75;;;11.60;99.90;;;;;;4974818;28;20026;-72
2024/03/27 09:21:09;;;;;;;14.15;10.35;;;12.00;99.90;;;;;;4971875;28;20362;-72
2024/03/27 09:23:35;;;;;;;16.98;9.20;;;12.40;99.90;;;;;;4990547;28;20381;-72
2024/03/27 09:26:03;;;;;;;13.43;9.13;;;12.40;99.90;;;;;;5053115;28;20046;-73
2024/03/27 09:28:29;;;;;;;15.23;9.80;;;12.40;99.90;;;;;;4972448;28;20523;-73
2024/03/27 09:30:57;;;;;;;13.63;9.45;;;12.60;99.90;;;;;;4971813;28;20042;-71
2024/03/27 09:33:23;;;;;;;12.25;9.13;;;12.30;99.90;;;;;;4974729;28;20057;-74
2024/03/27 09:35:50;;;;;;;12.50;8.35;;;12.60;99.90;;;;;;4982359;28;20061;-72
2024/03/27 09:38:18;;;;;;;11.07;8.63;;;12.70;99.90;;;;;;4972308;28;20038;-73
2024/03/27 09:40:49;;;;;;;16.02;9.23;;;12.40;99.90;;;;;;4972057;28;20095;-70
2024/03/27 09:43:16;;;;;;;14.90;8.68;;;12.00;99.90;;;;;;4969042;28;20046;-71
2024/03/27 09:45:43;;;;;;;12.70;8.57;;;12.30;99.90;;;;;;5016433;28;20042;-72
2024/03/27 09:48:10;;;;;;;10.50;8.52;;;12.40;99.90;;;;;;4971937;28;20034;-74
2024/03/27 09:50:38;;;;;;;11.65;7.97;;;12.40;99.90;;;;;;4963972;28;20042;-73
2024/03/27 09:53:06;;;;;;;13.50;8.65;;;12.50;99.90;;;;;;4971853;28;20087;-74
2024/03/27 09:55:34;;;;;;;10.55;7.63;;;12.40;99.90;;;;;;4942234;28;20046;-72
2024/03/27 09:58:21;;;;;;;14.93;8.48;;;12.40;99.90;;;;;;4972787;28;20446;-70
2024/03/27 10:00:48;;;;;;;10.48;7.80;;;12.70;99.90;;;;;;4973817;28;20053;-75
2024/03/27 10:03:14;;;;;;;11.43;8.40;;;13.10;99.90;;;;;;4973257;28;20035;-72
2024/03/27 10:05:43;;;;;;;12.27;7.72;;;13.30;99.90;;;;;;4982290;28;20537;-71
2024/03/27 10:08:10;;;;;;;10.07;7.45;;;13.70;99.90;;;;;;4979269;28;20034;-72
2024/03/27 10:10:36;;;;;;;10.45;7.80;;;13.30;99.40;;;;;;4978487;28;20434;-79
2024/03/27 10:13:02;;;;;;;11.30;7.43;;;13.40;99.90;;;;;;4973624;28;20043;-73
2024/03/27 10:15:29;;;;;;;10.85;7.68;;;13.70;98.90;;;;;;4971641;28;20050;-74
2024/03/27 10:17:56;;;;;;;10.98;7.15;;;14.00;98.70;;;;;;4977607;28;20042;-74
2024/03/27 10:20:23;;;;;;;9.68;7.55;;;14.20;98.30;;;;;;5001518;28;20030;-78
2024/03/27 10:22:49;;;;;;;10.45;7.05;;;14.60;97.90;;;;;;4976989;28;20057;-75
2024/03/27 10:25:18;;;;;;;9.02;6.78;;;14.20;98.00;;;;;;4965202;28;20034;-72
2024/03/27 10:27:44;;;;;;;11.95;7.45;;;14.40;97.70;;;;;;4972208;28;20039;-72
2024/03/27 10:30:11;;;;;;;10.77;7.32;;;14.30;97.20;;;;;;4966187;28;20427;-75
2024/03/27 10:32:39;;;;;;;13.27;7.25;;;14.40;97.30;;;;;;4956820;28;20042;-74
2024/03/27 10:35:08;;;;;;;9.45;7.05;;;15.00;96.80;;;;;;4972081;28;20038;-74
2024/03/27 10:37:37;;;;;;;9.10;6.93;;;15.20;95.90;;;;;;4973032;28;20031;-74
2024/03/27 10:40:04;;;;;;;13.77;7.10;;;14.90;96.50;;;;;;4971825;28;20633;-73
2024/03/27 10:42:36;;;;;;;9.63;7.22;;;15.70;95.60;;;;;;4967703;28;20080;-75
2024/03/27 10:45:07;;;;;;;12.93;7.70;;;16.30;94.10;;;;;;4971474;28;20815;-72
2024/03/27 10:47:34;;;;;;;15.32;8.43;;;16.30;94.10;;;;;;4974656;28;20042;-72
2024/03/27 10:50:07;;;;;;;11.77;8.23;;;15.80;93.90;;;;;;4971727;28;20066;-74
2024/03/27 10:52:34;;;;;;;11.73;8.48;;;15.20;95.40;;;;;;4970837;28;20046;-70
2024/03/27 10:55:07;;;;;;;14.45;8.82;;;15.20;95.00;;;;;;4972152;28;20031;-76
2024/03/27 10:57:34;;;;;;;11.70;8.70;;;15.20;95.60;;;;;;4970907;28;20172;-68
2024/03/27 11:00:02;;;;;;;11.10;7.85;;;16.30;94.00;;;;;;4971877;28;20030;-75
2024/03/27 11:02:32;;;;;;;13.60;8.00;;;16.50;93.50;;;;;;4967770;28;20050;-74
2024/03/27 11:05:01;;;;;;;10.40;6.93;;;16.60;93.30;;;;;;4962328;28;20038;-69
2024/03/27 11:07:33;;;;;;;10.52;7.55;;;17.40;92.10;;;;;;4972189;28;20045;-75
2024/03/27 11:09:59;;;;;;;;;;;16.90;92.20;;;;;;4968409;28;20042;-68
2024/03/27 11:12:27;;;;;;;10.90;6.50;;;17.20;91.80;;;;;;4985340;28;19926;-72
2024/03/27 11:14:54;;;;;;;12.48;7.47;;;17.50;91.10;;;;;;4969725;28;20030;-74
2024/03/27 11:17:28;;;;;;;13.23;7.63;;;16.50;91.60;;;;;;4985972;28;20026;-76
2024/03/27 11:20:00;;;;;;;12.98;7.63;;;15.80;93.30;;;;;;4982240;28;20526;-77
2024/03/27 11:22:28;;;;;;;12.50;7.57;;;16.30;92.50;;;;;;4958257;28;20404;-76
2024/03/27 11:24:54;;;;;;;14.93;7.32;;;16.20;92.40;;;;;;4973230;28;20447;-75
2024/03/27 11:27:28;;;;;;;10.70;7.30;;;16.70;92.40;;;;;;4972765;28;20084;-75
2024/03/27 11:29:58;;;;;;;12.02;8.00;;;16.30;92.50;;;;;;4969437;28;20041;-75
2024/03/27 11:32:47;;;;;;;;;;;16.40;92.80;;;;;;4977792;28;20042;-69
2024/03/27 11:35:20;;;;;;;15.52;7.40;;;15.90;93.10;;;;;;4971763;28;20314;-76
2024/03/27 11:37:46;;;;;;;14.85;6.85;;;16.40;93.10;;;;;;4988278;28;20030;-76
2024/03/27 11:40:13;;;;;;;10.55;7.25;;;17.30;91.90;;;;;;4981572;28;20030;-74
2024/03/27 11:42:39;;;;;;;15.80;8.30;;;17.30;91.70;;;;;;4958396;28;20039;-72
2024/03/27 11:45:06;;;;;;;15.15;7.95;;;18.00;90.80;;;;;;4975036;28;20039;-73
2024/03/27 11:47:34;;;;;;;19.15;7.97;;;17.60;90.60;;;;;;4987082;28;20086;-78
2024/03/27 11:50:01;;;;;;;16.42;8.65;;;17.70;90.80;;;;;;4974819;28;20031;-69
2024/03/27 11:52:27;;;;;;;13.93;7.85;;;17.40;90.70;;;;;;5042006;28;20065;-74
2024/03/27 11:54:55;;;;;;;15.13;8.30;;;17.00;91.40;;;;;;4959642;28;20073;-69
2024/03/27 11:57:22;;;;;;;15.20;7.72;;;17.20;91.10;;;;;;4979683;28;20076;-75
2024/03/27 11:59:51;;;;;;;13.85;7.28;;;16.70;91.70;;;;;;4980449;28;20034;-78
2024/03/27 12:02:17;;;;;;;17.17;8.07;;;16.40;92.50;;;;;;4978054;28;20054;-74
2024/03/27 12:04:44;;;;;;;17.92;7.70;;;16.40;91.80;;;;;;4987672;28;20038;-75
2024/03/27 12:07:10;;;;;;;13.27;7.82;;;15.80;92.80;;;;;;4981528;28;20388;-79
2024/03/27 12:09:40;;;;;;;14.90;7.43;;;16.30;92.00;;;;;;4971906;28;20072;-77
2024/03/27 12:12:06;;;;;;;17.23;8.07;;;15.60;92.90;;;;;;5015166;28;20034;-74
2024/03/27 12:14:33;;;;;;;18.33;7.80;;;16.30;93.20;;;;;;4967551;28;20064;-76
2024/03/27 12:17:14;;;;;;;15.02;8.43;;;17.10;91.70;;;;;;5045450;28;20029;-76
2024/03/27 12:19:51;;;;;;;16.00;7.43;;;17.10;91.30;;;;;;4993372;28;20091;-78
2024/03/27 12:22:18;;;;;;;12.82;8.13;;;17.60;91.20;;;;;;4987173;28;20522;-79
2024/03/27 12:24:46;;;;;;;15.55;7.55;;;18.70;89.90;;;;;;4982721;28;20046;-79
2024/03/27 12:27:13;;;;;;;14.52;8.98;;;17.60;90.50;;;;;;4986120;28;20117;-77
2024/03/27 12:29:41;;;;;;;12.68;7.75;;;17.20;91.20;;;;;;4981852;28;20026;-78
2024/03/27 12:32:07;;;;;;;12.73;8.07;;;15.90;92.70;;;;;;4982055;28;20058;-73
2024/03/27 12:34:33;;;;;;;18.05;8.60;;;15.70;93.60;;;;;;4976180;28;20038;-77
2024/03/27 12:37:03;;;;;;;18.60;8.45;;;16.00;93.20;;;;;;4985254;28;20033;-75
2024/03/27 12:39:29;;;;;;;11.40;7.10;;;16.50;92.50;;;;;;4983239;28;20031;-78